Terminal Aerodrome Forecast
Issued by NWS Charleston, WV

Current Version | Previous Version | Text Only | Print | Product List | Glossary Off
Versions: 1 2 3 4 5 6 7 8 9 10 11 12 13 14 15 16 17 18 19 20 21 22 23 24 25

000
FTUS41 KRLX 310520
TAFEKN
TAF
KEKN 310520Z 3106/0106 00000KT 3SM HZ SKC
     FM310800 00000KT 3SM BR SKC
     FM311000 00000KT 1/4SM FG BKN001
     FM311200 00000KT 3SM BR SCT001
     FM311300 28004KT P6SM SKC
     FM311700 29006KT P6SM SCT250=

USA.gov is the U.S. government's official web portal to all federal, state and local government web resources and services.